sensor_id;sensor_type;location;lat;lon;timestamp;temperature;humidity
9305;DHT22;4690;52.422;13.486;2023-04-24T00:05:40;11.10;99.90
9305;DHT22;4690;52.422;13.486;2023-04-24T00:08:06;11.10;99.90
9305;DHT22;4690;52.422;13.486;2023-04-24T00:10:32;11.10;99.90
9305;DHT22;4690;52.422;13.486;2023-04-24T00:12:58;11.00;99.90
9305;DHT22;4690;52.422;13.486;2023-04-24T00:15:24;11.10;99.90
9305;DHT22;4690;52.422;13.486;2023-04-24T00:17:50;11.10;99.90
9305;DHT22;4690;52.422;13.486;2023-04-24T00:20:15;11.10;99.90
9305;DHT22;4690;52.422;13.486;2023-04-24T00:22:41;11.00;99.90
9305;DHT22;4690;52.422;13.486;2023-04-24T00:25:07;11.10;99.90
9305;DHT22;4690;52.422;13.486;2023-04-24T00:27:33;11.10;99.90
9305;DHT22;4690;52.422;13.486;2023-04-24T00:30:00;11.00;99.90
9305;DHT22;4690;52.422;13.486;2023-04-24T00:32:26;11.10;99.90
9305;DHT22;4690;52.422;13.486;2023-04-24T00:34:52;11.00;99.90
9305;DHT22;4690;52.422;13.486;2023-04-24T00:37:18;11.00;99.90
9305;DHT22;4690;52.422;13.486;2023-04-24T00:39:43;10.90;99.90
9305;DHT22;4690;52.422;13.486;2023-04-24T00:42:09;10.90;99.90
9305;DHT22;4690;52.422;13.486;2023-04-24T00:44:36;10.90;99.90
9305;DHT22;4690;52.422;13.486;2023-04-24T00:47:02;10.90;99.90
9305;DHT22;4690;52.422;13.486;2023-04-24T00:49:28;10.80;99.90
9305;DHT22;4690;52.422;13.486;2023-04-24T00:51:54;10.90;99.90
9305;DHT22;4690;52.422;13.486;2023-04-24T00:54:19;10.90;99.90
9305;DHT22;4690;52.422;13.486;2023-04-24T00:56:46;10.90;99.90
9305;DHT22;4690;52.422;13.486;2023-04-24T00:59:12;10.90;99.90
9305;DHT22;4690;52.422;13.486;2023-04-24T01:01:40;10.90;99.90
9305;DHT22;4690;52.422;13.486;2023-04-24T01:04:07;10.80;99.90
9305;DHT22;4690;52.422;13.486;2023-04-24T01:06:39;10.80;99.90
9305;DHT22;4690;52.422;13.486;2023-04-24T01:09:05;10.80;99.90
9305;DHT22;4690;52.422;13.486;2023-04-24T01:11:36;10.80;99.90
9305;DHT22;4690;52.422;13.486;2023-04-24T01:14:02;10.80;99.90
9305;DHT22;4690;52.422;13.486;2023-04-24T01:16:28;10.80;99.90
9305;DHT22;4690;52.422;13.486;2023-04-24T01:18:54;10.90;99.90
9305;DHT22;4690;52.422;13.486;2023-04-24T01:21:21;10.90;99.90
9305;DHT22;4690;52.422;13.486;2023-04-24T01:23:49;10.90;99.90
9305;DHT22;4690;52.422;13.486;2023-04-24T01:26:16;10.90;99.90
9305;DHT22;4690;52.422;13.486;2023-04-24T01:28:42;10.90;99.90
9305;DHT22;4690;52.422;13.486;2023-04-24T01:31:08;10.90;99.90
9305;DHT22;4690;52.422;13.486;2023-04-24T01:33:34;10.90;99.90
9305;DHT22;4690;52.422;13.486;2023-04-24T01:36:00;11.00;99.90
9305;DHT22;4690;52.422;13.486;2023-04-24T01:38:26;11.00;99.90
9305;DHT22;4690;52.422;13.486;2023-04-24T01:40:52;11.00;99.90
9305;DHT22;4690;52.422;13.486;2023-04-24T01:43:19;11.00;99.90
9305;DHT22;4690;52.422;13.486;2023-04-24T01:45:45;11.00;99.90
9305;DHT22;4690;52.422;13.486;2023-04-24T01:48:12;11.00;99.90
9305;DHT22;4690;52.422;13.486;2023-04-24T01:50:38;10.90;99.90
9305;DHT22;4690;52.422;13.486;2023-04-24T01:53:04;11.00;99.90
9305;DHT22;4690;52.422;13.486;2023-04-24T01:55:30;10.90;99.90
9305;DHT22;4690;52.422;13.486;2023-04-24T01:57:56;10.90;99.90
9305;DHT22;4690;52.422;13.486;2023-04-24T02:00:22;10.90;99.90
9305;DHT22;4690;52.422;13.486;2023-04-24T02:02:49;10.90;99.90
9305;DHT22;4690;52.422;13.486;2023-04-24T02:05:15;10.90;99.90
9305;DHT22;4690;52.422;13.486;2023-04-24T02:07:41;10.90;99.90
9305;DHT22;4690;52.422;13.486;2023-04-24T02:10:07;10.90;99.90
9305;DHT22;4690;52.422;13.486;2023-04-24T02:12:33;11.00;99.90
9305;DHT22;4690;52.422;13.486;2023-04-24T02:14:58;11.00;99.90
9305;DHT22;4690;52.422;13.486;2023-04-24T02:17:24;11.00;99.90
9305;DHT22;4690;52.422;13.486;2023-04-24T02:19:50;11.00;99.90
9305;DHT22;4690;52.422;13.486;2023-04-24T02:22:16;10.90;99.90
9305;DHT22;4690;52.422;13.486;2023-04-24T02:24:42;11.00;99.90
9305;DHT22;4690;52.422;13.486;2023-04-24T02:27:07;11.00;99.90
9305;DHT22;4690;52.422;13.486;2023-04-24T02:29:33;11.10;99.90
9305;DHT22;4690;52.422;13.486;2023-04-24T02:31:59;11.10;99.90
9305;DHT22;4690;52.422;13.486;2023-04-24T02:34:25;11.10;99.90
9305;DHT22;4690;52.422;13.486;2023-04-24T02:36:51;11.20;99.90
9305;DHT22;4690;52.422;13.486;2023-04-24T02:39:19;11.20;99.90
9305;DHT22;4690;52.422;13.486;2023-04-24T02:41:45;11.20;99.90
9305;DHT22;4690;52.422;13.486;2023-04-24T02:44:11;11.20;99.90
9305;DHT22;4690;52.422;13.486;2023-04-24T02:46:37;11.30;99.90
9305;DHT22;4690;52.422;13.486;2023-04-24T02:49:02;11.20;99.90
9305;DHT22;4690;52.422;13.486;2023-04-24T02:51:28;11.30;99.90
9305;DHT22;4690;52.422;13.486;2023-04-24T02:53:54;11.20;99.90
9305;DHT22;4690;52.422;13.486;2023-04-24T02:56:21;11.30;99.90
9305;DHT22;4690;52.422;13.486;2023-04-24T02:58:46;11.30;99.90
9305;DHT22;4690;52.422;13.486;2023-04-24T03:01:12;11.30;99.90
9305;DHT22;4690;52.422;13.486;2023-04-24T03:03:38;11.30;99.90
9305;DHT22;4690;52.422;13.486;2023-04-24T03:06:05;11.30;99.90
9305;DHT22;4690;52.422;13.486;2023-04-24T03:08:32;11.30;99.90
9305;DHT22;4690;52.422;13.486;2023-04-24T03:10:57;11.40;99.90
9305;DHT22;4690;52.422;13.486;2023-04-24T03:13:23;11.40;99.90
9305;DHT22;4690;52.422;13.486;2023-04-24T03:15:49;11.40;99.90
9305;DHT22;4690;52.422;13.486;2023-04-24T03:18:15;11.40;99.90
9305;DHT22;4690;52.422;13.486;2023-04-24T03:20:40;11.40;99.90
9305;DHT22;4690;52.422;13.486;2023-04-24T03:23:06;11.40;99.90
9305;DHT22;4690;52.422;13.486;2023-04-24T03:25:32;11.40;99.90
9305;DHT22;4690;52.422;13.486;2023-04-24T03:27:58;11.40;99.90
9305;DHT22;4690;52.422;13.486;2023-04-24T03:30:23;11.40;99.90
9305;DHT22;4690;52.422;13.486;2023-04-24T03:32:49;11.40;99.90
9305;DHT22;4690;52.422;13.486;2023-04-24T03:35:15;11.40;99.90
9305;DHT22;4690;52.422;13.486;2023-04-24T03:37:41;11.40;99.90
9305;DHT22;4690;52.422;13.486;2023-04-24T03:40:07;11.40;99.90
9305;DHT22;4690;52.422;13.486;2023-04-24T03:42:33;11.40;99.90
9305;DHT22;4690;52.422;13.486;2023-04-24T03:44:59;11.40;99.90
9305;DHT22;4690;52.422;13.486;2023-04-24T03:47:25;11.40;99.90
9305;DHT22;4690;52.422;13.486;2023-04-24T03:49:50;11.40;99.90
9305;DHT22;4690;52.422;13.486;2023-04-24T03:52:17;11.50;99.90
9305;DHT22;4690;52.422;13.486;2023-04-24T03:54:42;11.50;99.90
9305;DHT22;4690;52.422;13.486;2023-04-24T03:57:08;11.50;99.90
9305;DHT22;4690;52.422;13.486;2023-04-24T03:59:34;11.50;99.90
9305;DHT22;4690;52.422;13.486;2023-04-24T04:01:59;11.50;99.90
9305;DHT22;4690;52.422;13.486;2023-04-24T04:04:25;11.50;99.90
9305;DHT22;4690;52.422;13.486;2023-04-24T04:06:51;11.50;99.90
9305;DHT22;4690;52.422;13.486;2023-04-24T04:09:17;11.50;99.90
9305;DHT22;4690;52.422;13.486;2023-04-24T04:11:43;11.50;99.90
9305;DHT22;4690;52.422;13.486;2023-04-24T04:14:08;11.50;99.90
9305;DHT22;4690;52.422;13.486;2023-04-24T04:16:34;11.50;99.90
9305;DHT22;4690;52.422;13.486;2023-04-24T04:19:02;11.50;99.90
9305;DHT22;4690;52.422;13.486;2023-04-24T04:21:28;11.50;99.90
9305;DHT22;4690;52.422;13.486;2023-04-24T04:23:56;11.50;99.90
9305;DHT22;4690;52.422;13.486;2023-04-24T04:26:22;11.50;99.90
9305;DHT22;4690;52.422;13.486;2023-04-24T04:28:51;11.50;99.90
9305;DHT22;4690;52.422;13.486;2023-04-24T04:31:19;11.50;99.90
9305;DHT22;4690;52.422;13.486;2023-04-24T04:33:45;11.50;99.90
9305;DHT22;4690;52.422;13.486;2023-04-24T04:36:11;11.50;99.90
9305;DHT22;4690;52.422;13.486;2023-04-24T04:38:37;11.60;99.90
9305;DHT22;4690;52.422;13.486;2023-04-24T04:41:03;11.60;99.90
9305;DHT22;4690;52.422;13.486;2023-04-24T04:43:29;11.60;99.90
9305;DHT22;4690;52.422;13.486;2023-04-24T04:45:57;11.60;99.90
9305;DHT22;4690;52.422;13.486;2023-04-24T04:48:23;11.60;99.90
9305;DHT22;4690;52.422;13.486;2023-04-24T04:50:49;11.70;99.90
9305;DHT22;4690;52.422;13.486;2023-04-24T04:53:15;11.70;99.90
9305;DHT22;4690;52.422;13.486;2023-04-24T04:55:41;11.70;99.90
9305;DHT22;4690;52.422;13.486;2023-04-24T04:58:07;11.80;99.90
9305;DHT22;4690;52.422;13.486;2023-04-24T05:00:33;11.80;99.90
9305;DHT22;4690;52.422;13.486;2023-04-24T05:03:01;11.80;99.90
9305;DHT22;4690;52.422;13.486;2023-04-24T05:05:28;11.80;99.90
9305;DHT22;4690;52.422;13.486;2023-04-24T05:07:54;11.80;99.90
9305;DHT22;4690;52.422;13.486;2023-04-24T05:10:20;11.90;99.90
9305;DHT22;4690;52.422;13.486;2023-04-24T05:12:45;11.90;99.90
9305;DHT22;4690;52.422;13.486;2023-04-24T05:15:11;12.00;99.90
9305;DHT22;4690;52.422;13.486;2023-04-24T05:17:37;12.00;99.90
9305;DHT22;4690;52.422;13.486;2023-04-24T05:20:05;12.00;99.90
9305;DHT22;4690;52.422;13.486;2023-04-24T05:22:32;12.00;99.90
9305;DHT22;4690;52.422;13.486;2023-04-24T05:24:58;12.10;99.90
9305;DHT22;4690;52.422;13.486;2023-04-24T05:27:24;12.20;99.90
9305;DHT22;4690;52.422;13.486;2023-04-24T05:29:50;12.20;99.90
9305;DHT22;4690;52.422;13.486;2023-04-24T05:32:16;12.30;99.90
9305;DHT22;4690;52.422;13.486;2023-04-24T05:34:42;12.40;99.90
9305;DHT22;4690;52.422;13.486;2023-04-24T05:37:08;12.50;99.90
9305;DHT22;4690;52.422;13.486;2023-04-24T05:39:35;12.50;99.90
9305;DHT22;4690;52.422;13.486;2023-04-24T05:42:02;12.60;99.90
9305;DHT22;4690;52.422;13.486;2023-04-24T05:44:28;12.50;99.90
9305;DHT22;4690;52.422;13.486;2023-04-24T05:46:54;12.60;99.90
9305;DHT22;4690;52.422;13.486;2023-04-24T05:49:21;12.80;99.90
9305;DHT22;4690;52.422;13.486;2023-04-24T05:51:47;12.90;99.90
9305;DHT22;4690;52.422;13.486;2023-04-24T05:54:13;13.00;99.90
9305;DHT22;4690;52.422;13.486;2023-04-24T05:56:39;13.10;99.90
9305;DHT22;4690;52.422;13.486;2023-04-24T05:59:05;13.00;99.90
9305;DHT22;4690;52.422;13.486;2023-04-24T06:01:31;13.00;99.90
9305;DHT22;4690;52.422;13.486;2023-04-24T06:03:57;13.00;99.90
9305;DHT22;4690;52.422;13.486;2023-04-24T06:06:24;12.90;99.90
9305;DHT22;4690;52.422;13.486;2023-04-24T06:08:50;13.00;99.90
9305;DHT22;4690;52.422;13.486;2023-04-24T06:11:15;13.10;99.90
9305;DHT22;4690;52.422;13.486;2023-04-24T06:13:41;13.30;99.90
9305;DHT22;4690;52.422;13.486;2023-04-24T06:16:07;13.40;99.90
9305;DHT22;4690;52.422;13.486;2023-04-24T06:18:33;13.60;99.90
9305;DHT22;4690;52.422;13.486;2023-04-24T06:20:59;13.80;99.90
9305;DHT22;4690;52.422;13.486;2023-04-24T06:23:25;14.00;99.90
9305;DHT22;4690;52.422;13.486;2023-04-24T06:25:51;14.00;99.90
9305;DHT22;4690;52.422;13.486;2023-04-24T06:28:17;13.90;99.90
9305;DHT22;4690;52.422;13.486;2023-04-24T06:30:42;13.90;99.90
9305;DHT22;4690;52.422;13.486;2023-04-24T06:33:09;13.90;99.90
9305;DHT22;4690;52.422;13.486;2023-04-24T06:35:36;14.10;99.90
9305;DHT22;4690;52.422;13.486;2023-04-24T06:38:03;14.20;99.90
9305;DHT22;4690;52.422;13.486;2023-04-24T06:40:29;14.50;99.90
9305;DHT22;4690;52.422;13.486;2023-04-24T06:42:55;14.80;99.90
9305;DHT22;4690;52.422;13.486;2023-04-24T06:45:21;15.00;99.90
9305;DHT22;4690;52.422;13.486;2023-04-24T06:47:47;15.40;99.90
9305;DHT22;4690;52.422;13.486;2023-04-24T06:50:13;15.50;99.90
9305;DHT22;4690;52.422;13.486;2023-04-24T06:52:40;15.70;99.90
9305;DHT22;4690;52.422;13.486;2023-04-24T06:55:06;15.70;99.90
9305;DHT22;4690;52.422;13.486;2023-04-24T06:57:32;16.00;99.90
9305;DHT22;4690;52.422;13.486;2023-04-24T06:59:58;16.00;99.90
9305;DHT22;4690;52.422;13.486;2023-04-24T07:02:25;15.90;99.90
9305;DHT22;4690;52.422;13.486;2023-04-24T07:04:50;16.20;99.90
9305;DHT22;4690;52.422;13.486;2023-04-24T07:07:16;16.20;99.90
9305;DHT22;4690;52.422;13.486;2023-04-24T07:09:42;16.10;99.90
9305;DHT22;4690;52.422;13.486;2023-04-24T07:12:09;16.10;99.90
9305;DHT22;4690;52.422;13.486;2023-04-24T07:14:36;16.40;99.90
9305;DHT22;4690;52.422;13.486;2023-04-24T07:17:03;16.60;99.90
9305;DHT22;4690;52.422;13.486;2023-04-24T07:19:30;16.80;99.90
9305;DHT22;4690;52.422;13.486;2023-04-24T07:21:56;16.90;99.90
9305;DHT22;4690;52.422;13.486;2023-04-24T07:24:26;17.10;99.90
9305;DHT22;4690;52.422;13.486;2023-04-24T07:26:53;17.30;99.90
9305;DHT22;4690;52.422;13.486;2023-04-24T07:29:19;17.20;99.90
9305;DHT22;4690;52.422;13.486;2023-04-24T07:31:46;17.40;99.90
9305;DHT22;4690;52.422;13.486;2023-04-24T07:34:12;16.60;99.90
9305;DHT22;4690;52.422;13.486;2023-04-24T07:36:38;16.90;99.90
9305;DHT22;4690;52.422;13.486;2023-04-24T07:39:05;16.50;99.90
9305;DHT22;4690;52.422;13.486;2023-04-24T07:41:31;16.70;99.90
9305;DHT22;4690;52.422;13.486;2023-04-24T07:43:57;16.70;99.90
9305;DHT22;4690;52.422;13.486;2023-04-24T07:46:23;16.80;99.90
9305;DHT22;4690;52.422;13.486;2023-04-24T07:48:50;17.10;99.90
9305;DHT22;4690;52.422;13.486;2023-04-24T07:51:16;17.20;99.90
9305;DHT22;4690;52.422;13.486;2023-04-24T07:53:43;17.60;99.90
9305;DHT22;4690;52.422;13.486;2023-04-24T07:56:09;17.70;99.90
9305;DHT22;4690;52.422;13.486;2023-04-24T07:58:35;17.00;99.90
9305;DHT22;4690;52.422;13.486;2023-04-24T08:01:01;16.70;99.90
9305;DHT22;4690;52.422;13.486;2023-04-24T08:03:26;16.80;99.90
9305;DHT22;4690;52.422;13.486;2023-04-24T08:05:52;16.80;99.90
9305;DHT22;4690;52.422;13.486;2023-04-24T08:08:21;16.90;99.90
9305;DHT22;4690;52.422;13.486;2023-04-24T08:10:49;16.70;99.90
9305;DHT22;4690;52.422;13.486;2023-04-24T08:13:15;16.40;99.90
9305;DHT22;4690;52.422;13.486;2023-04-24T08:15:40;16.20;99.90
9305;DHT22;4690;52.422;13.486;2023-04-24T08:18:07;16.00;99.90
9305;DHT22;4690;52.422;13.486;2023-04-24T08:20:32;15.90;99.90
9305;DHT22;4690;52.422;13.486;2023-04-24T08:22:58;16.10;99.90
9305;DHT22;4690;52.422;13.486;2023-04-24T08:25:24;16.40;99.90
9305;DHT22;4690;52.422;13.486;2023-04-24T08:27:51;16.90;99.90
9305;DHT22;4690;52.422;13.486;2023-04-24T08:30:17;17.00;99.90
9305;DHT22;4690;52.422;13.486;2023-04-24T08:32:43;16.90;99.90
9305;DHT22;4690;52.422;13.486;2023-04-24T08:35:09;16.80;99.90
9305;DHT22;4690;52.422;13.486;2023-04-24T08:37:35;17.40;99.90
9305;DHT22;4690;52.422;13.486;2023-04-24T08:40:13;17.50;99.90
9305;DHT22;4690;52.422;13.486;2023-04-24T08:42:42;17.10;99.90
9305;DHT22;4690;52.422;13.486;2023-04-24T08:45:10;17.30;99.90
9305;DHT22;4690;52.422;13.486;2023-04-24T08:47:41;17.70;99.90
9305;DHT22;4690;52.422;13.486;2023-04-24T08:50:08;17.90;99.90
9305;DHT22;4690;52.422;13.486;2023-04-24T08:52:35;17.50;99.90
9305;DHT22;4690;52.422;13.486;2023-04-24T08:55:01;17.10;99.90
9305;DHT22;4690;52.422;13.486;2023-04-24T08:57:28;17.20;99.90
9305;DHT22;4690;52.422;13.486;2023-04-24T08:59:56;16.90;99.90
9305;DHT22;4690;52.422;13.486;2023-04-24T09:02:23;16.60;99.90
9305;DHT22;4690;52.422;13.486;2023-04-24T09:04:52;16.70;99.90
9305;DHT22;4690;52.422;13.486;2023-04-24T09:07:19;17.20;99.90
9305;DHT22;4690;52.422;13.486;2023-04-24T09:09:48;17.40;99.90
9305;DHT22;4690;52.422;13.486;2023-04-24T09:12:16;17.40;99.90
9305;DHT22;4690;52.422;13.486;2023-04-24T09:14:42;17.10;99.90
9305;DHT22;4690;52.422;13.486;2023-04-24T09:17:13;16.70;99.90
9305;DHT22;4690;52.422;13.486;2023-04-24T09:19:40;16.70;99.90
9305;DHT22;4690;52.422;13.486;2023-04-24T09:22:07;16.40;99.90
9305;DHT22;4690;52.422;13.486;2023-04-24T09:24:34;16.40;99.90
9305;DHT22;4690;52.422;13.486;2023-04-24T09:27:01;16.30;99.90
9305;DHT22;4690;52.422;13.486;2023-04-24T09:29:27;16.30;99.90
9305;DHT22;4690;52.422;13.486;2023-04-24T09:31:53;16.20;99.90
9305;DHT22;4690;52.422;13.486;2023-04-24T09:34:27;16.20;99.90
9305;DHT22;4690;52.422;13.486;2023-04-24T09:36:53;16.20;99.90
9305;DHT22;4690;52.422;13.486;2023-04-24T09:39:19;16.20;99.90
9305;DHT22;4690;52.422;13.486;2023-04-24T09:44:20;16.30;99.90
9305;DHT22;4690;52.422;13.486;2023-04-24T09:46:52;16.30;99.90
9305;DHT22;4690;52.422;13.486;2023-04-24T09:49:29;16.20;99.90
9305;DHT22;4690;52.422;13.486;2023-04-24T09:52:10;16.30;99.90
9305;DHT22;4690;52.422;13.486;2023-04-24T09:54:37;16.40;99.90
9305;DHT22;4690;52.422;13.486;2023-04-24T09:57:04;16.50;99.90
9305;DHT22;4690;52.422;13.486;2023-04-24T09:59:30;16.50;99.90
9305;DHT22;4690;52.422;13.486;2023-04-24T10:01:56;16.40;99.90
9305;DHT22;4690;52.422;13.486;2023-04-24T10:04:28;16.30;99.90
9305;DHT22;4690;52.422;13.486;2023-04-24T10:06:56;16.30;99.90
9305;DHT22;4690;52.422;13.486;2023-04-24T10:09:25;16.30;99.90
9305;DHT22;4690;52.422;13.486;2023-04-24T10:11:53;16.30;99.90
9305;DHT22;4690;52.422;13.486;2023-04-24T10:14:23;16.20;99.90
9305;DHT22;4690;52.422;13.486;2023-04-24T10:16:53;15.90;99.90
9305;DHT22;4690;52.422;13.486;2023-04-24T10:19:20;15.80;99.90
9305;DHT22;4690;52.422;13.486;2023-04-24T10:21:46;15.80;99.90
9305;DHT22;4690;52.422;13.486;2023-04-24T10:24:16;15.80;99.90
9305;DHT22;4690;52.422;13.486;2023-04-24T10:26:44;16.00;99.90
9305;DHT22;4690;52.422;13.486;2023-04-24T10:29:12;16.20;99.90
9305;DHT22;4690;52.422;13.486;2023-04-24T10:31:41;16.40;99.90
9305;DHT22;4690;52.422;13.486;2023-04-24T10:34:08;16.80;99.90
9305;DHT22;4690;52.422;13.486;2023-04-24T10:36:38;17.20;99.90
9305;DHT22;4690;52.422;13.486;2023-04-24T10:39:11;17.40;99.90
9305;DHT22;4690;52.422;13.486;2023-04-24T10:41:40;17.30;99.90
9305;DHT22;4690;52.422;13.486;2023-04-24T10:44:13;17.00;99.90
9305;DHT22;4690;52.422;13.486;2023-04-24T10:46:52;16.80;99.90
9305;DHT22;4690;52.422;13.486;2023-04-24T10:49:30;16.60;99.90
9305;DHT22;4690;52.422;13.486;2023-04-24T10:52:01;16.40;99.90
9305;DHT22;4690;52.422;13.486;2023-04-24T10:54:46;16.40;99.90
9305;DHT22;4690;52.422;13.486;2023-04-24T10:59:52;16.50;99.90
9305;DHT22;4690;52.422;13.486;2023-04-24T11:02:39;16.60;99.90
9305;DHT22;4690;52.422;13.486;2023-04-24T11:05:09;16.50;99.90
9305;DHT22;4690;52.422;13.486;2023-04-24T11:08:14;16.40;99.90
9305;DHT22;4690;52.422;13.486;2023-04-24T11:10:45;16.50;99.90
9305;DHT22;4690;52.422;13.486;2023-04-24T11:13:21;16.80;99.90
9305;DHT22;4690;52.422;13.486;2023-04-24T11:17:07;17.30;99.90
9305;DHT22;4690;52.422;13.486;2023-04-24T11:19:09;17.40;99.90
9305;DHT22;4690;52.422;13.486;2023-04-24T11:21:42;17.20;99.90
9305;DHT22;4690;52.422;13.486;2023-04-24T11:24:30;17.00;99.90
9305;DHT22;4690;52.422;13.486;2023-04-24T11:27:05;16.70;99.90
9305;DHT22;4690;52.422;13.486;2023-04-24T11:29:48;16.50;99.90
9305;DHT22;4690;52.422;13.486;2023-04-24T11:35:00;15.80;99.90
9305;DHT22;4690;52.422;13.486;2023-04-24T11:37:40;14.70;99.90
9305;DHT22;4690;52.422;13.486;2023-04-24T11:40:10;14.00;99.90
9305;DHT22;4690;52.422;13.486;2023-04-24T11:42:38;13.60;99.90
9305;DHT22;4690;52.422;13.486;2023-04-24T11:45:09;13.30;99.90
9305;DHT22;4690;52.422;13.486;2023-04-24T11:47:37;13.30;99.90
9305;DHT22;4690;52.422;13.486;2023-04-24T11:50:04;13.40;99.90
9305;DHT22;4690;52.422;13.486;2023-04-24T11:52:33;13.70;99.90
9305;DHT22;4690;52.422;13.486;2023-04-24T11:55:03;14.30;99.90
9305;DHT22;4690;52.422;13.486;2023-04-24T11:57:30;14.20;99.90
9305;DHT22;4690;52.422;13.486;2023-04-24T12:00:03;14.30;99.90
9305;DHT22;4690;52.422;13.486;2023-04-24T12:02:31;14.50;99.90
9305;DHT22;4690;52.422;13.486;2023-04-24T12:04:56;14.50;99.90
9305;DHT22;4690;52.422;13.486;2023-04-24T12:07:23;14.80;99.90
9305;DHT22;4690;52.422;13.486;2023-04-24T12:09:57;14.50;99.90
9305;DHT22;4690;52.422;13.486;2023-04-24T12:12:26;14.30;99.90
9305;DHT22;4690;52.422;13.486;2023-04-24T12:14:57;14.10;99.90
9305;DHT22;4690;52.422;13.486;2023-04-24T12:17:34;13.90;99.90
9305;DHT22;4690;52.422;13.486;2023-04-24T12:20:06;13.90;99.90
9305;DHT22;4690;52.422;13.486;2023-04-24T12:25:15;13.90;99.90
9305;DHT22;4690;52.422;13.486;2023-04-24T12:27:44;14.00;99.90
9305;DHT22;4690;52.422;13.486;2023-04-24T12:30:13;14.10;99.90
9305;DHT22;4690;52.422;13.486;2023-04-24T12:32:48;14.20;99.90
9305;DHT22;4690;52.422;13.486;2023-04-24T12:35:22;14.20;99.90
9305;DHT22;4690;52.422;13.486;2023-04-24T12:37:49;14.20;99.90
9305;DHT22;4690;52.422;13.486;2023-04-24T12:40:18;14.50;99.90
9305;DHT22;4690;52.422;13.486;2023-04-24T12:42:49;15.80;99.90
9305;DHT22;4690;52.422;13.486;2023-04-24T12:45:17;16.30;99.90
9305;DHT22;4690;52.422;13.486;2023-04-24T12:47:44;16.20;99.90
9305;DHT22;4690;52.422;13.486;2023-04-24T12:50:12;16.30;99.90
9305;DHT22;4690;52.422;13.486;2023-04-24T12:52:41;16.40;99.90
9305;DHT22;4690;52.422;13.486;2023-04-24T12:55:07;16.40;99.90
9305;DHT22;4690;52.422;13.486;2023-04-24T12:57:39;16.60;99.90
9305;DHT22;4690;52.422;13.486;2023-04-24T13:00:06;16.70;99.90
9305;DHT22;4690;52.422;13.486;2023-04-24T13:02:34;16.70;99.90
9305;DHT22;4690;52.422;13.486;2023-04-24T13:05:00;16.80;99.90
9305;DHT22;4690;52.422;13.486;2023-04-24T13:07:27;17.00;99.90
9305;DHT22;4690;52.422;13.486;2023-04-24T13:09:54;16.90;99.90
9305;DHT22;4690;52.422;13.486;2023-04-24T13:12:21;16.90;99.90
9305;DHT22;4690;52.422;13.486;2023-04-24T13:14:49;16.90;99.90
9305;DHT22;4690;52.422;13.486;2023-04-24T13:17:15;17.10;99.90
9305;DHT22;4690;52.422;13.486;2023-04-24T13:19:42;17.20;99.90
9305;DHT22;4690;52.422;13.486;2023-04-24T13:22:09;17.50;99.90
9305;DHT22;4690;52.422;13.486;2023-04-24T13:24:37;17.80;99.90
9305;DHT22;4690;52.422;13.486;2023-04-24T13:27:05;17.70;99.90
9305;DHT22;4690;52.422;13.486;2023-04-24T13:29:30;17.60;99.90
9305;DHT22;4690;52.422;13.486;2023-04-24T13:31:56;17.90;99.90
9305;DHT22;4690;52.422;13.486;2023-04-24T13:34:26;18.10;99.90
9305;DHT22;4690;52.422;13.486;2023-04-24T13:36:53;18.10;99.90
9305;DHT22;4690;52.422;13.486;2023-04-24T13:39:21;18.10;99.90
9305;DHT22;4690;52.422;13.486;2023-04-24T13:41:47;17.90;99.90
9305;DHT22;4690;52.422;13.486;2023-04-24T13:44:14;18.00;99.90
9305;DHT22;4690;52.422;13.486;2023-04-24T13:46:42;18.10;99.90
9305;DHT22;4690;52.422;13.486;2023-04-24T13:49:09;18.30;99.90
9305;DHT22;4690;52.422;13.486;2023-04-24T13:51:36;18.10;99.80
9305;DHT22;4690;52.422;13.486;2023-04-24T13:54:02;18.20;99.90
9305;DHT22;4690;52.422;13.486;2023-04-24T13:56:27;18.10;99.60
9305;DHT22;4690;52.422;13.486;2023-04-24T13:58:53;18.10;99.90
9305;DHT22;4690;52.422;13.486;2023-04-24T14:01:19;17.90;98.50
9305;DHT22;4690;52.422;13.486;2023-04-24T14:03:49;18.10;97.80
9305;DHT22;4690;52.422;13.486;2023-04-24T14:06:19;18.20;99.50
9305;DHT22;4690;52.422;13.486;2023-04-24T14:08:45;18.20;99.50
9305;DHT22;4690;52.422;13.486;2023-04-24T14:11:12;18.30;99.90
9305;DHT22;4690;52.422;13.486;2023-04-24T14:13:38;18.30;99.40
9305;DHT22;4690;52.422;13.486;2023-04-24T14:16:06;18.20;99.60
9305;DHT22;4690;52.422;13.486;2023-04-24T14:18:32;18.10;99.90
9305;DHT22;4690;52.422;13.486;2023-04-24T14:20:58;18.00;99.90
9305;DHT22;4690;52.422;13.486;2023-04-24T14:23:24;18.00;99.90
9305;DHT22;4690;52.422;13.486;2023-04-24T14:25:50;18.10;99.20
9305;DHT22;4690;52.422;13.486;2023-04-24T14:28:18;18.20;99.20
9305;DHT22;4690;52.422;13.486;2023-04-24T14:30:45;18.20;97.00
9305;DHT22;4690;52.422;13.486;2023-04-24T14:33:10;18.00;96.60
9305;DHT22;4690;52.422;13.486;2023-04-24T14:35:37;17.60;97.60
9305;DHT22;4690;52.422;13.486;2023-04-24T14:38:03;17.50;98.30
9305;DHT22;4690;52.422;13.486;2023-04-24T14:40:28;17.50;98.60
9305;DHT22;4690;52.422;13.486;2023-04-24T14:42:55;17.30;98.90
9305;DHT22;4690;52.422;13.486;2023-04-24T14:45:22;17.40;99.30
9305;DHT22;4690;52.422;13.486;2023-04-24T14:47:48;17.60;99.40
9305;DHT22;4690;52.422;13.486;2023-04-24T14:50:13;17.80;99.90
9305;DHT22;4690;52.422;13.486;2023-04-24T14:52:40;17.90;98.50
9305;DHT22;4690;52.422;13.486;2023-04-24T14:55:06;17.70;99.90
9305;DHT22;4690;52.422;13.486;2023-04-24T14:57:33;17.80;99.50
9305;DHT22;4690;52.422;13.486;2023-04-24T14:59:59;17.70;98.30
9305;DHT22;4690;52.422;13.486;2023-04-24T15:02:25;17.40;98.20
9305;DHT22;4690;52.422;13.486;2023-04-24T15:04:51;17.30;98.70
9305;DHT22;4690;52.422;13.486;2023-04-24T15:07:17;17.10;98.30
9305;DHT22;4690;52.422;13.486;2023-04-24T15:09:42;16.90;98.60
9305;DHT22;4690;52.422;13.486;2023-04-24T15:12:08;16.80;99.40
9305;DHT22;4690;52.422;13.486;2023-04-24T15:14:35;16.70;99.90
9305;DHT22;4690;52.422;13.486;2023-04-24T15:17:01;16.60;99.70
9305;DHT22;4690;52.422;13.486;2023-04-24T15:19:26;16.80;99.20
9305;DHT22;4690;52.422;13.486;2023-04-24T15:21:52;17.00;99.40
9305;DHT22;4690;52.422;13.486;2023-04-24T15:24:18;17.10;98.60
9305;DHT22;4690;52.422;13.486;2023-04-24T15:26:43;17.10;98.90
9305;DHT22;4690;52.422;13.486;2023-04-24T15:29:09;16.90;98.20
9305;DHT22;4690;52.422;13.486;2023-04-24T15:31:35;16.90;98.70
9305;DHT22;4690;52.422;13.486;2023-04-24T15:34:04;16.80;98.50
9305;DHT22;4690;52.422;13.486;2023-04-24T15:36:31;16.40;97.80
9305;DHT22;4690;52.422;13.486;2023-04-24T15:38:57;16.30;98.50
9305;DHT22;4690;52.422;13.486;2023-04-24T15:41:23;16.10;98.80
9305;DHT22;4690;52.422;13.486;2023-04-24T15:43:49;16.00;99.90
9305;DHT22;4690;52.422;13.486;2023-04-24T15:46:15;15.90;99.50
9305;DHT22;4690;52.422;13.486;2023-04-24T15:48:44;15.80;99.50
9305;DHT22;4690;52.422;13.486;2023-04-24T15:51:10;15.70;99.70
9305;DHT22;4690;52.422;13.486;2023-04-24T15:53:36;15.60;99.80
9305;DHT22;4690;52.422;13.486;2023-04-24T15:56:02;15.60;99.30
9305;DHT22;4690;52.422;13.486;2023-04-24T15:58:28;15.60;99.60
9305;DHT22;4690;52.422;13.486;2023-04-24T16:00:54;15.60;99.90